createdAt,value
2017-04-07T00:00:18.260Z,11.09
2017-04-07T00:00:39.948Z,11.02
2017-04-07T00:01:01.755Z,10.98
2017-04-07T00:01:23.456Z,11.01
2017-04-07T00:01:49.944Z,11.02
2017-04-07T00:02:11.723Z,11.05
2017-04-07T00:02:47.758Z,11.08
2017-04-07T00:03:10.078Z,11.01
2017-04-07T00:03:36.685Z,10.84
2017-04-07T00:03:58.389Z,10.71
2017-04-07T00:04:20.086Z,10.67
2017-04-07T00:04:41.779Z,10.57
2017-04-07T00:05:13.120Z,10.64
2017-04-07T00:05:34.832Z,10.63
2017-04-07T00:05:56.542Z,10.60
2017-04-07T00:06:18.257Z,10.54
2017-04-07T00:06:40.042Z,10.36
2017-04-07T00:07:01.749Z,10.33
2017-04-07T00:07:23.450Z,10.41
2017-04-07T00:07:45.144Z,10.58
2017-04-07T00:08:06.925Z,10.55
2017-04-07T00:08:28.623Z,10.48
2017-04-07T00:08:50.349Z,10.57
2017-04-07T00:09:16.934Z,10.56
2017-04-07T00:09:38.643Z,10.52
2017-04-07T00:10:00.338Z,10.51
2017-04-07T00:10:26.808Z,10.46
2017-04-07T00:10:48.594Z,10.40
2017-04-07T00:11:15.061Z,10.41
2017-04-07T00:11:36.771Z,10.46
2017-04-07T00:12:44.060Z,10.72
2017-04-07T00:13:05.795Z,10.70
2017-04-07T00:13:27.492Z,10.77
2017-04-07T00:13:54.089Z,10.79
2017-04-07T00:14:15.778Z,10.65
2017-04-07T00:14:37.470Z,10.49
2017-04-07T00:14:59.217Z,10.33
2017-04-07T00:15:20.979Z,10.18
2017-04-07T00:16:23.486Z,10.41
2017-04-07T00:16:45.304Z,10.51
2017-04-07T00:17:06.991Z,10.57
2017-04-07T00:18:09.574Z,10.75
2017-04-07T00:18:31.311Z,10.81
2017-04-07T00:19:07.339Z,10.65
2017-04-07T00:19:29.686Z,10.49
2017-04-07T00:19:51.411Z,10.45
2017-04-07T00:20:27.444Z,10.56
2017-04-07T00:20:54.607Z,10.67
2017-04-07T00:21:57.111Z,10.56
2017-04-07T00:22:18.907Z,10.43
2017-04-07T00:22:50.156Z,10.39
2017-04-07T00:23:11.847Z,10.48
2017-04-07T00:23:38.417Z,10.48
2017-04-07T00:24:00.136Z,10.46
2017-04-07T00:24:21.845Z,10.54
2017-04-07T00:24:57.878Z,10.72
2017-04-07T00:25:20.269Z,10.80
2017-04-07T00:25:46.812Z,10.79
2017-04-07T00:26:08.489Z,10.67
2017-04-07T00:26:30.234Z,10.59
2017-04-07T00:26:56.709Z,10.60
2017-04-07T00:27:18.398Z,10.51
2017-04-07T00:27:49.736Z,10.53
2017-04-07T00:28:11.432Z,10.65
2017-04-07T00:28:33.133Z,10.62
2017-04-07T00:28:54.830Z,10.69
2017-04-07T00:29:16.643Z,10.68
2017-04-07T00:29:43.111Z,10.66
2017-04-07T00:30:04.820Z,10.66
2017-04-07T00:30:31.391Z,10.70
2017-04-07T00:30:53.084Z,10.69
2017-04-07T00:31:19.574Z,10.64
2017-04-07T00:31:41.271Z,10.58
2017-04-07T00:32:12.528Z,10.55
2017-04-07T00:32:34.336Z,10.53
2017-04-07T00:33:00.815Z,10.60
2017-04-07T00:33:22.517Z,10.66
2017-04-07T00:33:53.765Z,10.63
2017-04-07T00:34:15.564Z,10.64
2017-04-07T00:34:46.823Z,10.56
2017-04-07T00:35:08.523Z,10.46
2017-04-07T00:35:30.322Z,10.49
2017-04-07T00:36:06.356Z,10.63
2017-04-07T00:36:28.610Z,10.56
2017-04-07T00:36:55.169Z,10.60
2017-04-07T00:37:16.874Z,10.45
2017-04-07T00:37:38.650Z,10.45
2017-04-07T00:38:00.424Z,10.48
2017-04-07T00:38:26.895Z,10.48
2017-04-07T00:38:48.598Z,10.56
2017-04-07T00:39:15.084Z,10.51
2017-04-07T00:39:36.870Z,10.52
2017-04-07T00:39:58.598Z,10.54
2017-04-07T00:40:25.163Z,10.59
2017-04-07T00:40:46.983Z,10.59
2017-04-07T00:41:18.247Z,10.64
2017-04-07T00:41:39.987Z,10.63
2017-04-07T00:42:01.777Z,10.58
2017-04-07T00:42:28.344Z,10.59
2017-04-07T00:42:50.042Z,10.54
2017-04-07T00:43:11.733Z,10.57
2017-04-07T00:43:38.300Z,10.64
2017-04-07T00:44:00.088Z,10.54
2017-04-07T00:44:21.874Z,10.55
2017-04-07T00:44:46.095Z,10.57
2017-04-07T00:45:07.890Z,10.59
2017-04-07T00:45:39.247Z,10.63
2017-04-07T00:46:01.026Z,10.70
2017-04-07T00:46:22.923Z,10.76
2017-04-07T00:46:49.491Z,10.73
2017-04-07T00:47:11.185Z,10.59
2017-04-07T00:47:42.429Z,10.56
2017-04-07T00:48:04.216Z,10.57
2017-04-07T00:48:25.908Z,10.58
2017-04-07T00:48:47.614Z,10.50
2017-04-07T00:49:09.321Z,10.54
2017-04-07T00:49:31.020Z,10.53
2017-04-07T00:50:02.285Z,10.45
2017-04-07T00:50:24.112Z,10.38
2017-04-07T00:50:50.596Z,10.27
2017-04-07T00:51:12.299Z,10.33
2017-04-07T00:51:48.322Z,10.26
2017-04-07T00:52:10.574Z,10.18
2017-04-07T00:52:32.272Z,10.19
2017-04-07T00:52:53.987Z,10.18
2017-04-07T00:53:20.468Z,10.17
2017-04-07T00:53:42.177Z,10.21
2017-04-07T00:54:03.880Z,10.26
2017-04-07T00:54:30.368Z,10.17
2017-04-07T00:54:52.076Z,10.15
2017-04-07T00:55:23.341Z,10.26
2017-04-07T00:55:45.031Z,10.22
2017-04-07T00:56:57.110Z,10.18
2017-04-07T00:57:18.818Z,10.26
2017-04-07T00:57:40.558Z,10.31
2017-04-07T00:58:11.803Z,10.22
2017-04-07T00:58:33.497Z,10.14
2017-04-07T00:59:00.068Z,10.00
2017-04-07T00:59:21.778Z,9.95
2017-04-07T00:59:48.246Z,10.01
2017-04-07T01:00:09.945Z,9.98
2017-04-07T01:00:36.454Z,10.10
2017-04-07T01:00:58.153Z,10.14
2017-04-07T01:01:19.871Z,10.13
2017-04-07T01:01:55.905Z,10.15
2017-04-07T01:02:18.140Z,10.13
2017-04-07T01:02:39.843Z,10.05
2017-04-07T01:03:01.537Z,9.97
2017-04-07T01:03:28.118Z,9.91
2017-04-07T01:03:49.713Z,9.93
2017-04-07T01:04:56.986Z,10.05
2017-04-07T01:05:18.689Z,10.04
2017-04-07T01:05:40.515Z,10.09
2017-04-07T01:06:11.769Z,10.11
2017-04-07T01:06:33.488Z,10.08
2017-04-07T01:06:55.198Z,9.97
2017-04-07T01:07:16.898Z,9.95
2017-04-07T01:07:43.395Z,9.93
2017-04-07T01:08:09.865Z,10.03
2017-04-07T01:08:31.654Z,10.13
2017-04-07T01:09:02.905Z,10.05
2017-04-07T01:09:24.621Z,9.90
2017-04-07T01:09:51.103Z,9.76
2017-04-07T01:10:12.810Z,9.75
2017-04-07T01:11:15.400Z,9.92
2017-04-07T01:11:37.100Z,9.98
2017-04-07T01:11:58.813Z,10.08
2017-04-07T01:12:20.512Z,10.16
2017-04-07T01:12:42.205Z,9.97
2017-04-07T01:13:08.682Z,9.87
2017-04-07T01:13:30.406Z,9.96
2017-04-07T01:14:01.662Z,10.05
2017-04-07T01:14:23.355Z,10.09
2017-04-07T01:14:45.057Z,10.09
2017-04-07T01:15:21.089Z,10.14
2017-04-07T01:15:43.476Z,10.16
2017-04-07T01:16:14.721Z,10.17
2017-04-07T01:16:36.424Z,10.12
2017-04-07T01:16:58.133Z,10.16
2017-04-07T01:17:24.610Z,10.21
2017-04-07T01:17:46.303Z,10.19
2017-04-07T01:18:08.003Z,10.30
2017-04-07T01:18:29.708Z,10.26
2017-04-07T01:18:51.420Z,10.24
2017-04-07T01:19:13.125Z,10.29
2017-04-07T01:19:34.917Z,10.40
2017-04-07T01:19:56.620Z,10.46
2017-04-07T01:20:27.868Z,10.40
2017-04-07T01:20:49.667Z,10.41
2017-04-07T01:21:16.152Z,10.51
2017-04-07T01:21:37.847Z,10.42
2017-04-07T01:21:59.548Z,10.39
2017-04-07T01:22:21.242Z,10.41
2017-04-07T01:22:47.710Z,10.34
2017-04-07T01:23:09.416Z,10.34
2017-04-07T01:23:31.116Z,10.39
2017-04-07T01:23:57.601Z,10.11
2017-04-07T01:24:19.329Z,9.94
2017-04-07T01:24:45.810Z,9.95
2017-04-07T01:25:07.520Z,9.85
2017-04-07T01:25:29.306Z,9.82
2017-04-07T01:25:51.033Z,9.87
2017-04-07T01:26:17.510Z,10.03
2017-04-07T01:26:39.241Z,10.04
2017-04-07T01:27:05.740Z,10.10
2017-04-07T01:27:27.448Z,10.16
2017-04-07T01:27:49.156Z,10.18
2017-04-07T01:28:10.858Z,10.20
2017-04-07T01:28:32.545Z,10.17
2017-04-07T01:28:54.253Z,10.10
2017-04-07T01:29:15.950Z,10.02
2017-04-07T01:29:37.656Z,9.99
2017-04-07T01:29:59.341Z,9.98
2017-04-07T01:30:35.367Z,10.04
2017-04-07T01:30:57.643Z,10.08
2017-04-07T01:31:33.673Z,10.16
2017-04-07T01:31:55.864Z,10.17
2017-04-07T01:32:17.586Z,10.00
2017-04-07T01:32:48.837Z,9.98
2017-04-07T01:33:10.540Z,9.90
2017-04-07T01:33:32.249Z,9.82
2017-04-07T01:34:03.498Z,9.98
2017-04-07T01:34:25.189Z,9.92
2017-04-07T01:34:46.878Z,9.97
2017-04-07T01:35:08.577Z,10.02
2017-04-07T01:35:30.310Z,10.02
2017-04-07T01:35:51.985Z,10.06
2017-04-07T01:36:18.455Z,10.16
2017-04-07T01:36:40.251Z,10.07
2017-04-07T01:37:16.279Z,10.10
2017-04-07T01:37:38.520Z,10.16
2017-04-07T01:38:00.244Z,10.26
2017-04-07T01:38:31.481Z,10.23
2017-04-07T01:38:53.273Z,10.13
2017-04-07T01:39:24.525Z,10.15
2017-04-07T01:39:46.218Z,10.17
2017-04-07T01:40:07.906Z,10.19
2017-04-07T01:40:29.699Z,10.12
2017-04-07T01:40:51.386Z,10.07
2017-04-07T01:41:13.103Z,10.08
2017-04-07T01:41:44.368Z,9.99
2017-04-07T01:42:06.072Z,9.98
2017-04-07T01:42:27.777Z,10.00
2017-04-07T01:42:49.487Z,9.96
2017-04-07T01:43:11.176Z,10.04
2017-04-07T01:43:42.430Z,10.12
2017-04-07T01:44:04.139Z,10.17
2017-04-07T01:44:25.837Z,10.19
2017-04-07T01:44:52.317Z,10.18
2017-04-07T01:45:14.016Z,10.05
2017-04-07T01:45:40.482Z,10.05
2017-04-07T01:46:02.213Z,10.05
2017-04-07T01:46:23.908Z,10.09
2017-04-07T01:46:50.389Z,10.08
2017-04-07T01:47:12.079Z,10.10
2017-04-07T01:47:33.775Z,10.18
2017-04-07T01:48:00.352Z,10.19
2017-04-07T01:48:22.057Z,10.14
2017-04-07T01:48:43.750Z,10.08
2017-04-07T01:49:05.456Z,10.14
2017-04-07T01:49:27.232Z,10.12
2017-04-07T01:50:03.260Z,10.28
2017-04-07T01:50:25.530Z,10.28
2017-04-07T01:50:47.226Z,10.24
2017-04-07T01:51:08.931Z,10.11
2017-04-07T01:52:11.436Z,9.82
2017-04-07T01:52:33.141Z,9.82
2017-04-07T01:52:59.622Z,9.88
2017-04-07T01:53:21.316Z,9.92
2017-04-07T01:53:43.128Z,9.99
2017-04-07T01:54:04.839Z,9.99
2017-04-07T01:54:26.631Z,10.02
2017-04-07T01:54:53.116Z,10.08
2017-04-07T01:55:14.827Z,10.05
2017-04-07T01:55:50.857Z,10.00
2017-04-07T01:56:13.145Z,10.02
2017-04-07T01:56:44.413Z,9.97
2017-04-07T01:57:06.156Z,10.02
2017-04-07T01:57:37.408Z,9.92
2017-04-07T01:57:59.124Z,9.90
2017-04-07T01:58:25.608Z,9.80
2017-04-07T01:58:47.402Z,9.77
2017-04-07T01:59:09.110Z,9.88
2017-04-07T01:59:30.817Z,9.95
2017-04-07T01:59:52.531Z,9.98
2017-04-07T02:00:14.321Z,10.01
2017-04-07T02:00:40.894Z,10.04
2017-04-07T02:01:02.587Z,10.06
2017-04-07T02:01:29.160Z,10.01
2017-04-07T02:01:50.961Z,10.08
2017-04-07T02:02:12.748Z,10.12
2017-04-07T02:02:39.307Z,10.13
2017-04-07T02:03:01.010Z,10.09
2017-04-07T02:03:22.704Z,10.09
2017-04-07T02:03:53.953Z,10.08
2017-04-07T02:04:15.645Z,10.08
2017-04-07T02:04:37.442Z,10.05
2017-04-07T02:05:01.162Z,10.00
2017-04-07T02:05:22.856Z,9.99
2017-04-07T02:05:44.561Z,9.92
2017-04-07T02:06:11.143Z,9.98
2017-04-07T02:06:32.953Z,10.10
2017-04-07T02:06:54.682Z,10.08
2017-04-07T02:07:21.172Z,10.05
2017-04-07T02:07:42.964Z,10.06
2017-04-07T02:08:04.658Z,10.05
2017-04-07T02:08:31.131Z,10.10
2017-04-07T02:08:52.843Z,10.04
2017-04-07T02:09:14.646Z,9.97
2017-04-07T02:09:41.146Z,9.89
2017-04-07T02:10:02.835Z,9.82
2017-04-07T02:10:34.095Z,9.69
2017-04-07T02:10:55.791Z,9.72
2017-04-07T02:11:22.268Z,9.82
2017-04-07T02:11:43.958Z,9.80
2017-04-07T02:12:05.694Z,9.80
2017-04-07T02:12:32.158Z,9.82
2017-04-07T02:12:53.949Z,9.84
2017-04-07T02:13:15.650Z,9.79
2017-04-07T02:13:42.129Z,9.75
2017-04-07T02:14:03.930Z,9.85
2017-04-07T02:14:39.963Z,9.79
2017-04-07T02:15:02.224Z,9.70
2017-04-07T02:15:33.480Z,9.74
2017-04-07T02:15:55.169Z,9.71
2017-04-07T02:16:16.874Z,9.65
2017-04-07T02:16:38.660Z,9.61
2017-04-07T02:17:00.451Z,9.63
2017-04-07T02:17:22.269Z,9.75
2017-04-07T02:17:43.964Z,9.85
2017-04-07T02:18:05.662Z,9.91
2017-04-07T02:18:27.359Z,9.90
2017-04-07T02:18:53.845Z,9.81
2017-04-07T02:19:15.541Z,9.80
2017-04-07T02:19:37.341Z,9.80
2017-04-07T02:19:59.137Z,9.77
2017-04-07T02:20:20.832Z,9.63
2017-04-07T02:20:42.528Z,9.50
2017-04-07T02:21:04.231Z,9.50
2017-04-07T02:21:26.001Z,9.54
2017-04-07T02:21:57.246Z,9.53
2017-04-07T02:22:19.037Z,9.44
2017-04-07T02:22:40.838Z,9.46
2017-04-07T02:23:02.648Z,9.45
2017-04-07T02:23:24.345Z,9.39
2017-04-07T02:23:50.808Z,9.43
2017-04-07T02:24:12.511Z,9.46
2017-04-07T02:24:38.989Z,9.40
2017-04-07T02:25:00.686Z,9.41
2017-04-07T02:25:22.383Z,9.48
2017-04-07T02:25:48.851Z,9.54
2017-04-07T02:26:10.665Z,9.50
2017-04-07T02:26:37.146Z,9.48
2017-04-07T02:26:58.908Z,9.42
2017-04-07T02:27:25.403Z,9.40
2017-04-07T02:27:47.195Z,9.39
2017-04-07T02:28:08.902Z,9.43
2017-04-07T02:28:30.598Z,9.44
2017-04-07T02:28:52.376Z,9.49
2017-04-07T02:29:14.077Z,9.57
2017-04-07T02:29:45.335Z,9.45
2017-04-07T02:30:07.019Z,9.49
2017-04-07T02:30:28.734Z,9.48
2017-04-07T02:31:04.756Z,9.53
2017-04-07T02:31:27.012Z,9.53
2017-04-07T02:31:58.268Z,9.51
2017-04-07T02:32:19.961Z,9.43
2017-04-07T02:32:41.696Z,9.45
2017-04-07T02:33:08.163Z,9.55
2017-04-07T02:33:29.950Z,9.51
2017-04-07T02:33:51.660Z,9.52
2017-04-07T02:34:13.363Z,9.52
2017-04-07T02:34:35.067Z,9.60
2017-04-07T02:35:01.539Z,9.36
2017-04-07T02:35:23.250Z,9.28
2017-04-07T02:35:45.043Z,9.27
2017-04-07T02:36:06.743Z,9.27
2017-04-07T02:36:28.549Z,9.23
2017-04-07T02:36:55.042Z,9.13
2017-04-07T02:37:16.752Z,9.12
2017-04-07T02:37:38.448Z,9.12
2017-04-07T02:38:04.922Z,9.08
2017-04-07T02:38:26.704Z,8.78
2017-04-07T02:38:48.406Z,8.61
2017-04-07T02:39:10.198Z,8.53
2017-04-07T02:39:31.891Z,8.82
2017-04-07T02:39:53.600Z,8.95
2017-04-07T02:40:20.189Z,9.03
2017-04-07T02:40:41.988Z,9.08
2017-04-07T02:41:03.694Z,9.15
2017-04-07T02:41:25.406Z,9.20
2017-04-07T02:41:47.099Z,9.34
2017-04-07T02:42:18.357Z,9.42
2017-04-07T02:42:40.167Z,9.37
2017-04-07T02:43:01.872Z,9.29
2017-04-07T02:43:23.571Z,9.24
2017-04-07T02:43:45.394Z,8.98
2017-04-07T02:44:11.869Z,8.94
2017-04-07T02:44:33.561Z,8.99
2017-04-07T02:44:55.265Z,8.94
2017-04-07T02:45:26.525Z,8.84
2017-04-07T02:45:48.335Z,8.62
2017-04-07T02:46:50.848Z,8.71
2017-04-07T02:47:12.547Z,8.82
2017-04-07T02:47:34.252Z,8.88
2017-04-07T02:48:00.724Z,8.91
2017-04-07T02:48:22.479Z,8.96
2017-04-07T02:48:48.972Z,9.09
2017-04-07T02:49:10.781Z,9.14
2017-04-07T02:49:32.476Z,9.20
2017-04-07T02:49:54.270Z,9.20
2017-04-07T02:50:15.956Z,9.26
2017-04-07T02:50:37.772Z,9.25
2017-04-07T02:51:04.254Z,9.29
2017-04-07T02:51:25.962Z,9.20
2017-04-07T02:51:47.760Z,9.16
2017-04-07T02:52:14.240Z,9.16
2017-04-07T02:52:36.035Z,9.22
2017-04-07T02:53:43.406Z,9.12
2017-04-07T02:54:05.111Z,9.20
2017-04-07T02:54:31.590Z,9.30
2017-04-07T02:54:53.285Z,9.36
2017-04-07T02:55:19.759Z,9.29
2017-04-07T02:55:41.559Z,9.31
2017-04-07T02:56:08.140Z,9.24
2017-04-07T02:56:29.833Z,9.17
2017-04-07T02:56:56.385Z,9.24
2017-04-07T02:57:18.076Z,9.23
2017-04-07T02:57:39.778Z,9.19
2017-04-07T02:58:06.262Z,9.10
2017-04-07T02:58:27.953Z,9.12
2017-04-07T02:58:49.653Z,9.18
2017-04-07T02:59:16.125Z,9.15
2017-04-07T02:59:37.831Z,9.14
2017-04-07T03:00:04.308Z,9.02
2017-04-07T03:00:25.997Z,9.17
2017-04-07T03:00:47.706Z,9.29
2017-04-07T03:01:18.963Z,9.29
2017-04-07T03:01:40.659Z,9.31
2017-04-07T03:02:07.133Z,9.24
2017-04-07T03:02:28.926Z,9.20
2017-04-07T03:02:55.423Z,9.22
2017-04-07T03:03:17.235Z,9.29
2017-04-07T03:03:38.941Z,9.23
2017-04-07T03:04:00.661Z,9.15
2017-04-07T03:04:22.364Z,9.17
2017-04-07T03:04:53.635Z,9.05
2017-04-07T03:05:15.355Z,8.99
2017-04-07T03:06:17.948Z,9.07
2017-04-07T03:06:39.656Z,9.12
2017-04-07T03:07:06.124Z,9.08
2017-04-07T03:07:27.930Z,9.00
2017-04-07T03:07:54.398Z,8.97
2017-04-07T03:08:16.187Z,9.07
2017-04-07T03:08:37.886Z,9.13
2017-04-07T03:09:13.909Z,9.14
2017-04-07T03:09:36.251Z,9.20
2017-04-07T03:09:57.952Z,9.28
2017-04-07T03:10:19.664Z,9.21
2017-04-07T03:10:41.350Z,9.26
2017-04-07T03:11:03.053Z,9.30
2017-04-07T03:11:34.391Z,9.17
2017-04-07T03:11:56.198Z,9.06
2017-04-07T03:12:17.890Z,9.04
2017-04-07T03:12:44.357Z,9.17
2017-04-07T03:13:06.136Z,9.14
2017-04-07T03:13:27.853Z,9.18
2017-04-07T03:13:49.555Z,9.23
2017-04-07T03:14:11.248Z,9.21
2017-04-07T03:14:42.584Z,9.01
2017-04-07T03:15:04.294Z,8.89
2017-04-07T03:15:35.542Z,8.97
2017-04-07T03:16:38.127Z,8.83
2017-04-07T03:17:00.431Z,8.83
2017-04-07T03:17:22.244Z,8.91
2017-04-07T03:18:24.753Z,8.85
2017-04-07T03:18:46.554Z,8.81
2017-04-07T03:19:08.264Z,8.87
2017-04-07T03:19:34.749Z,8.86
2017-04-07T03:19:56.532Z,8.90
2017-04-07T03:20:23.010Z,8.78
2017-04-07T03:20:44.742Z,8.77
2017-04-07T03:21:11.293Z,8.78
2017-04-07T03:21:32.994Z,8.80
2017-04-07T03:21:59.487Z,8.79
2017-04-07T03:22:21.216Z,8.84
2017-04-07T03:22:47.776Z,8.95
2017-04-07T03:23:09.468Z,9.00
2017-04-07T03:23:35.949Z,8.99
2017-04-07T03:24:02.514Z,8.88
2017-04-07T03:24:24.229Z,8.78
2017-04-07T03:24:45.945Z,8.81
2017-04-07T03:25:48.528Z,8.74
2017-04-07T03:26:10.237Z,8.79
2017-04-07T03:26:31.960Z,8.77
2017-04-07T03:26:53.695Z,8.74
2017-04-07T03:27:15.466Z,8.69
2017-04-07T03:27:37.180Z,8.71
2017-04-07T03:27:58.884Z,8.73
2017-04-07T03:28:20.573Z,8.73
2017-04-07T03:28:51.899Z,8.81
2017-04-07T03:29:44.842Z,8.67
2017-04-07T03:30:06.641Z,8.62
2017-04-07T03:30:37.909Z,8.46
2017-04-07T03:30:59.618Z,8.41
2017-04-07T03:31:21.389Z,8.45
2017-04-07T03:31:47.882Z,8.37
2017-04-07T03:32:11.611Z,8.41
2017-04-07T03:32:38.167Z,8.33
2017-04-07T03:32:59.886Z,8.28
2017-04-07T03:33:31.143Z,8.38
2017-04-07T03:33:52.986Z,8.49
2017-04-07T03:34:14.675Z,8.53
2017-04-07T03:34:41.151Z,8.49
2017-04-07T03:35:05.837Z,8.40
2017-04-07T03:35:32.432Z,8.43
2017-04-07T03:35:54.130Z,8.49
2017-04-07T03:36:15.836Z,8.50
2017-04-07T03:37:08.888Z,8.67
2017-04-07T03:37:35.354Z,8.70
2017-04-07T03:37:57.159Z,8.64
2017-04-07T03:38:28.418Z,8.56
2017-04-07T03:38:50.151Z,8.44
2017-04-07T03:39:21.492Z,8.41
2017-04-07T03:39:43.188Z,8.44
2017-04-07T03:40:04.894Z,8.54
2017-04-07T03:40:31.390Z,8.63
2017-04-07T03:40:53.180Z,8.62
2017-04-07T03:41:14.889Z,8.51
2017-04-07T03:41:36.598Z,8.52
2017-04-07T03:41:58.307Z,8.53
2017-04-07T03:42:24.864Z,8.44
2017-04-07T03:42:46.573Z,8.54
2017-04-07T03:43:08.271Z,8.55
2017-04-07T03:43:44.298Z,8.45
2017-04-07T03:44:06.750Z,8.44
2017-04-07T03:44:28.466Z,8.37
2017-04-07T03:44:50.170Z,8.35
2017-04-07T03:45:21.515Z,8.40
2017-04-07T03:45:43.227Z,8.39
2017-04-07T03:46:04.937Z,8.42
2017-04-07T03:46:31.429Z,8.53
2017-04-07T03:46:53.242Z,8.51
2017-04-07T03:47:19.764Z,8.32
2017-04-07T03:47:41.479Z,8.29
2017-04-07T03:48:17.635Z,8.51
2017-04-07T03:48:39.953Z,8.59
2017-04-07T03:49:01.655Z,8.65
2017-04-07T03:49:28.259Z,8.40
2017-04-07T03:49:49.989Z,8.43
2017-04-07T03:50:11.703Z,8.42
2017-04-07T03:50:43.031Z,8.42
2017-04-07T03:51:04.733Z,8.39
2017-04-07T03:51:35.991Z,8.39
2017-04-07T03:51:57.790Z,8.51
2017-04-07T03:52:24.273Z,8.60
2017-04-07T03:52:45.982Z,8.52
2017-04-07T03:53:07.772Z,8.47
2017-04-07T03:53:32.000Z,8.51
2017-04-07T03:53:53.584Z,8.47
2017-04-07T03:54:24.934Z,8.38
2017-04-07T03:54:46.639Z,8.36
2017-04-07T03:55:08.359Z,8.22
2017-04-07T03:55:39.701Z,8.22
2017-04-07T03:56:01.410Z,8.17
2017-04-07T03:56:23.119Z,8.21
2017-04-07T03:56:44.844Z,8.23
2017-04-07T03:57:06.619Z,8.23
2017-04-07T03:57:28.317Z,8.19
2017-04-07T03:57:59.575Z,8.12
2017-04-07T03:58:21.274Z,8.10
2017-04-07T03:58:42.986Z,8.18
2017-04-07T03:59:04.687Z,8.17
2017-04-07T03:59:26.412Z,7.97
2017-04-07T03:59:57.745Z,8.07
2017-04-07T04:00:19.468Z,8.23
2017-04-07T04:00:41.163Z,8.33
2017-04-07T04:01:02.893Z,8.34
2017-04-07T04:01:24.713Z,8.41
2017-04-07T04:01:46.414Z,8.40
2017-04-07T04:02:08.109Z,8.42
2017-04-07T04:02:29.816Z,8.32
2017-04-07T04:02:51.609Z,8.29
2017-04-07T04:03:18.113Z,8.32
2017-04-07T04:03:39.827Z,8.37
2017-04-07T04:04:01.538Z,8.32
2017-04-07T04:04:28.126Z,8.35
2017-04-07T04:04:49.835Z,8.40
2017-04-07T04:05:11.542Z,8.31
2017-04-07T04:05:38.104Z,8.17
2017-04-07T04:05:59.811Z,8.12
2017-04-07T04:06:31.077Z,8.00
2017-04-07T04:06:52.861Z,8.11
2017-04-07T04:07:14.556Z,8.11
2017-04-07T04:07:41.031Z,8.17
2017-04-07T04:08:02.744Z,8.13
2017-04-07T04:08:29.328Z,8.14
2017-04-07T04:08:51.049Z,8.07
2017-04-07T04:09:12.754Z,8.10
2017-04-07T04:09:44.089Z,8.22
2017-04-07T04:10:05.830Z,8.31
2017-04-07T04:10:32.307Z,8.28
2017-04-07T04:10:54.010Z,8.33
2017-04-07T04:11:15.816Z,8.28
2017-04-07T04:11:37.521Z,8.27
2017-04-07T04:11:59.220Z,8.15
2017-04-07T04:12:30.557Z,8.21
2017-04-07T04:12:52.265Z,8.17
2017-04-07T04:13:13.979Z,8.13
2017-04-07T04:13:35.696Z,8.09
2017-04-07T04:13:57.474Z,8.11
2017-04-07T04:14:23.983Z,8.12
2017-04-07T04:14:45.732Z,8.22
2017-04-07T04:15:12.292Z,8.35
2017-04-07T04:15:34.035Z,8.36
2017-04-07T04:16:00.494Z,8.44
2017-04-07T04:16:22.290Z,8.44
2017-04-07T04:16:43.979Z,8.41
2017-04-07T04:17:10.461Z,8.33
2017-04-07T04:17:34.371Z,8.29
2017-04-07T04:17:56.156Z,8.28
2017-04-07T04:18:17.855Z,8.34
2017-04-07T04:18:49.111Z,8.24
2017-04-07T04:19:10.913Z,8.25
2017-04-07T04:19:42.177Z,8.15
2017-04-07T04:20:03.903Z,8.19
2017-04-07T04:20:39.929Z,8.24
2017-04-07T04:21:02.188Z,8.29
2017-04-07T04:21:23.918Z,8.22
2017-04-07T04:21:59.943Z,8.13
2017-04-07T04:22:25.052Z,8.21
2017-04-07T04:22:46.762Z,8.09
2017-04-07T04:23:18.111Z,7.94
2017-04-07T04:23:39.827Z,7.99
2017-04-07T04:24:01.617Z,8.00
2017-04-07T04:24:28.180Z,8.05
2017-04-07T04:24:49.984Z,8.11
2017-04-07T04:25:11.768Z,8.14
2017-04-07T04:25:33.562Z,8.11
2017-04-07T04:25:55.354Z,8.10
2017-04-07T04:26:17.052Z,8.04
2017-04-07T04:26:48.312Z,8.12
2017-04-07T04:27:10.035Z,8.10
2017-04-07T04:27:36.601Z,8.16
2017-04-07T04:27:58.384Z,8.22
2017-04-07T04:28:24.963Z,8.24
2017-04-07T04:28:46.757Z,8.34
2017-04-07T04:29:08.469Z,8.42
2017-04-07T04:29:35.017Z,8.35
2017-04-07T04:29:56.827Z,8.43
2017-04-07T04:30:18.627Z,8.43
2017-04-07T04:30:45.198Z,8.26
2017-04-07T04:31:06.893Z,8.24
2017-04-07T04:31:28.598Z,8.24
2017-04-07T04:31:59.846Z,8.23
2017-04-07T04:32:21.540Z,8.13
2017-04-07T04:32:43.332Z,7.99
2017-04-07T04:33:22.249Z,7.88
2017-04-07T04:33:43.823Z,7.84
2017-04-07T04:34:10.431Z,7.85
2017-04-07T04:34:32.131Z,7.86
2017-04-07T04:35:08.165Z,7.85
2017-04-07T04:35:30.395Z,7.86
2017-04-07T04:35:52.190Z,7.90
2017-04-07T04:36:23.439Z,7.93
2017-04-07T04:36:52.918Z,7.82
2017-04-07T04:37:14.710Z,7.71
2017-04-07T04:37:45.971Z,7.76
2017-04-07T04:38:07.671Z,7.85
2017-04-07T04:38:29.376Z,7.90
2017-04-07T04:38:55.958Z,8.00
2017-04-07T04:39:17.670Z,7.98
2017-04-07T04:39:44.144Z,8.13
2017-04-07T04:40:05.889Z,8.14
2017-04-07T04:40:27.581Z,8.01
2017-04-07T04:41:31.089Z,8.14
2017-04-07T04:41:52.785Z,8.13
2017-04-07T04:42:24.030Z,8.11
2017-04-07T04:42:45.751Z,7.94
2017-04-07T04:43:07.456Z,7.85
2017-04-07T04:43:38.704Z,7.79
2017-04-07T04:44:00.410Z,7.76
2017-04-07T04:44:22.259Z,7.70
2017-04-07T04:44:53.529Z,7.82
2017-04-07T04:45:15.350Z,7.89
2017-04-07T04:45:41.833Z,7.86
2017-04-07T04:46:03.535Z,7.86
2017-04-07T04:46:30.110Z,7.81
2017-04-07T04:46:51.828Z,7.79
2017-04-07T04:47:18.313Z,7.84
2017-04-07T04:47:40.017Z,7.92
2017-04-07T04:48:06.483Z,7.97
2017-04-07T04:48:28.189Z,7.96
2017-04-07T04:48:49.976Z,8.00
2017-04-07T04:49:11.777Z,7.86
2017-04-07T04:49:33.486Z,7.78
2017-04-07T04:49:55.189Z,7.81
2017-04-07T04:50:21.768Z,7.89
2017-04-07T04:50:43.464Z,7.90
2017-04-07T04:51:05.260Z,7.97
2017-04-07T04:51:31.737Z,8.04
2017-04-07T04:51:53.565Z,8.03
2017-04-07T04:52:15.271Z,7.98
2017-04-07T04:52:41.745Z,7.87
2017-04-07T04:53:03.445Z,7.92
2017-04-07T04:53:25.151Z,8.04
2017-04-07T04:53:51.636Z,8.06
2017-04-07T04:54:13.332Z,8.10
2017-04-07T04:54:39.821Z,8.07
2017-04-07T04:55:01.602Z,8.14
2017-04-07T04:55:32.849Z,7.89
2017-04-07T04:55:54.644Z,7.92
2017-04-07T04:56:16.325Z,7.91
2017-04-07T04:56:38.023Z,7.74
2017-04-07T04:56:59.830Z,7.79
2017-04-07T04:57:26.321Z,7.88
2017-04-07T04:57:48.017Z,7.89
2017-04-07T04:58:09.720Z,7.93
2017-04-07T04:58:36.187Z,7.98
2017-04-07T04:58:57.883Z,8.02
2017-04-07T04:59:19.671Z,8.02
2017-04-07T04:59:50.922Z,8.03
2017-04-07T05:00:12.711Z,8.06
2017-04-07T05:00:39.190Z,8.03
2017-04-07T05:01:00.974Z,8.05
2017-04-07T05:01:22.767Z,8.12
2017-04-07T05:01:49.260Z,8.10
2017-04-07T05:02:10.945Z,8.13
2017-04-07T05:02:32.644Z,8.09
2017-04-07T05:03:35.259Z,8.01
2017-04-07T05:03:56.958Z,8.03
2017-04-07T05:04:18.658Z,8.02
2017-04-07T05:04:40.492Z,8.06
2017-04-07T05:05:02.181Z,8.21
2017-04-07T05:05:33.465Z,8.26
2017-04-07T05:05:55.160Z,8.38
2017-04-07T05:06:16.964Z,8.32
2017-04-07T05:06:43.444Z,8.19
2017-04-07T05:07:05.152Z,8.07
2017-04-07T05:07:26.838Z,8.00
2017-04-07T05:07:48.534Z,8.02
2017-04-07T05:08:10.230Z,8.02
2017-04-07T05:08:41.489Z,8.04
2017-04-07T05:09:03.183Z,8.02
2017-04-07T05:09:29.743Z,7.98
2017-04-07T05:09:51.429Z,7.97
2017-04-07T05:10:15.696Z,8.01
2017-04-07T05:10:37.512Z,8.11
2017-04-07T05:10:59.264Z,8.15
2017-04-07T05:11:25.742Z,8.25
2017-04-07T05:11:47.434Z,8.31
2017-04-07T05:12:09.131Z,8.28
2017-04-07T05:12:35.598Z,8.24
2017-04-07T05:12:57.297Z,8.16
2017-04-07T05:13:18.986Z,8.17
2017-04-07T05:13:40.689Z,8.15
2017-04-07T05:14:02.385Z,8.27
2017-04-07T05:14:24.076Z,8.33
2017-04-07T05:14:45.782Z,8.37
2017-04-07T05:15:07.476Z,8.35
2017-04-07T05:15:29.171Z,8.20
2017-04-07T05:15:50.870Z,8.08
2017-04-07T05:16:12.583Z,8.12
2017-04-07T05:16:34.284Z,8.31
2017-04-07T05:16:55.981Z,8.34
2017-04-07T05:17:22.473Z,8.16
2017-04-07T05:17:44.231Z,8.10
2017-04-07T05:18:05.935Z,8.09
2017-04-07T05:18:32.407Z,8.25
2017-04-07T05:18:54.107Z,8.19
2017-04-07T05:19:15.797Z,8.12
2017-04-07T05:19:37.493Z,8.16
2017-04-07T05:19:59.179Z,8.13
2017-04-07T05:20:20.882Z,8.17
2017-04-07T05:20:47.364Z,8.10
2017-04-07T05:21:09.055Z,8.09
2017-04-07T05:21:30.749Z,8.19
2017-04-07T05:21:52.457Z,8.19
2017-04-07T05:22:14.146Z,8.11
2017-04-07T05:22:35.841Z,8.04
2017-04-07T05:22:57.547Z,8.07
2017-04-07T05:23:19.236Z,8.06
2017-04-07T05:23:40.940Z,7.97
2017-04-07T05:24:12.197Z,8.02
2017-04-07T05:24:33.917Z,8.04
2017-04-07T05:24:55.613Z,8.06
2017-04-07T05:25:26.864Z,8.15
2017-04-07T05:25:48.551Z,8.16
2017-04-07T05:26:10.252Z,8.17
2017-04-07T05:26:31.955Z,8.07